createdAt,value
2019-02-26T00:02:25.943Z,49.67
2019-02-26T00:04:56.398Z,41.45
2019-02-26T00:07:28.111Z,45.15
2019-02-26T00:09:59.475Z,42.88
2019-02-26T00:12:30.948Z,46.88
2019-02-26T00:15:02.485Z,44.15
2019-02-26T00:17:36.260Z,51.20
2019-02-26T00:20:05.618Z,44.60
2019-02-26T00:22:36.704Z,45.35
2019-02-26T00:25:08.502Z,42.88
2019-02-26T00:27:39.187Z,46.88
2019-02-26T00:30:14.338Z,44.77
2019-02-26T00:32:44.179Z,44.23
2019-02-26T00:35:13.723Z,46.00
2019-02-26T00:37:44.073Z,47.85
2019-02-26T00:40:17.174Z,46.75
2019-02-26T00:42:45.984Z,44.60
2019-02-26T00:45:15.703Z,47.80
2019-02-26T00:47:46.141Z,44.42
2019-02-26T00:50:16.614Z,45.88
2019-02-26T00:52:46.433Z,46.00
2019-02-26T00:55:16.713Z,49.08
2019-02-26T00:57:46.508Z,43.13
2019-02-26T01:00:17.077Z,46.20
2019-02-26T01:02:47.350Z,43.23
2019-02-26T01:05:17.205Z,46.53
2019-02-26T01:07:49.356Z,46.02
2019-02-26T01:10:19.300Z,44.93
2019-02-26T01:12:49.672Z,42.08
2019-02-26T01:15:20.929Z,45.60
2019-02-26T01:18:09.827Z,46.20
2019-02-26T01:20:39.354Z,48.02
2019-02-26T01:23:09.439Z,46.63
2019-02-26T01:25:38.987Z,48.95
2019-02-26T01:28:08.514Z,48.70
2019-02-26T01:30:38.114Z,45.92
2019-02-26T01:33:09.771Z,47.65
2019-02-26T01:35:39.354Z,43.48
2019-02-26T01:38:09.490Z,48.98
2019-02-26T01:40:41.511Z,49.08
2019-02-26T01:43:10.260Z,41.55
2019-02-26T01:45:39.983Z,49.30
2019-02-26T01:48:11.494Z,45.00
2019-02-26T01:50:41.525Z,47.65
2019-02-26T01:53:12.185Z,45.52
2019-02-26T01:55:45.930Z,46.98
2019-02-26T01:58:16.549Z,49.73
2019-02-26T02:00:46.327Z,42.40
2019-02-26T02:03:16.550Z,41.65
2019-02-26T02:05:47.956Z,39.90
2019-02-26T02:08:20.227Z,43.42
2019-02-26T02:10:51.412Z,51.50
2019-02-26T02:13:20.834Z,44.38
2019-02-26T02:15:50.372Z,43.50
2019-02-26T02:18:21.025Z,46.83
2019-02-26T02:20:51.210Z,46.60
2019-02-26T02:23:21.262Z,48.90
2019-02-26T02:25:52.055Z,42.33
2019-02-26T02:28:23.887Z,44.25
2019-02-26T02:30:53.689Z,49.70
2019-02-26T02:33:26.350Z,48.05
2019-02-26T02:35:54.585Z,50.67
2019-02-26T02:38:24.118Z,44.93
2019-02-26T02:40:54.886Z,46.60
2019-02-26T02:43:24.540Z,42.85
2019-02-26T02:45:56.419Z,51.48
2019-02-26T02:48:25.983Z,48.02
2019-02-26T02:50:55.964Z,44.05
2019-02-26T02:53:27.457Z,42.15
2019-02-26T02:55:58.151Z,46.88
2019-02-26T02:58:27.674Z,49.70
2019-02-26T03:01:00.193Z,47.83
2019-02-26T03:03:28.737Z,47.45
2019-02-26T03:06:00.843Z,48.83
2019-02-26T03:08:29.907Z,48.85
2019-02-26T03:10:59.450Z,50.55
2019-02-26T03:13:28.971Z,48.60
2019-02-26T03:15:59.332Z,50.30
2019-02-26T03:18:29.746Z,54.08
2019-02-26T03:21:02.069Z,53.98
2019-02-26T03:23:33.384Z,46.88
2019-02-26T03:26:02.274Z,44.35
2019-02-26T03:28:34.900Z,50.17
2019-02-26T03:31:03.360Z,54.38
2019-02-26T03:33:32.990Z,52.23
2019-02-26T03:36:05.464Z,50.38
2019-02-26T03:38:33.741Z,47.58
2019-02-26T03:41:03.760Z,50.75
2019-02-26T03:43:34.203Z,48.13
2019-02-26T03:46:05.319Z,48.13
2019-02-26T03:48:35.553Z,53.40
2019-02-26T03:51:05.168Z,49.55
2019-02-26T03:53:36.344Z,49.45
2019-02-26T03:56:11.744Z,50.00
2019-02-26T03:58:39.646Z,51.48
2019-02-26T04:01:10.940Z,45.20
2019-02-26T04:03:42.374Z,50.10
2019-02-26T04:06:12.168Z,46.60
2019-02-26T04:08:44.748Z,46.53
2019-02-26T04:11:13.810Z,49.15
2019-02-26T04:13:46.091Z,49.08
2019-02-26T04:16:15.974Z,49.20
2019-02-26T04:18:45.519Z,46.45
2019-02-26T04:21:18.409Z,49.93
2019-02-26T04:23:47.064Z,46.05
2019-02-26T04:26:34.455Z,46.70
2019-02-26T04:29:08.380Z,50.85
2019-02-26T04:31:52.079Z,47.23
2019-02-26T04:34:30.399Z,50.67
2019-02-26T04:37:04.787Z,46.77
2019-02-26T04:39:47.642Z,46.05
2019-02-26T04:42:26.566Z,48.58
2019-02-26T04:45:08.398Z,50.80
2019-02-26T04:47:40.764Z,47.08
2019-02-26T04:50:10.578Z,44.20
2019-02-26T04:52:43.276Z,48.13
2019-02-26T04:55:11.547Z,43.13
2019-02-26T04:57:43.404Z,44.98
2019-02-26T05:00:12.703Z,47.53
2019-02-26T05:02:42.337Z,45.12
2019-02-26T05:05:12.223Z,45.65
2019-02-26T05:07:44.386Z,42.73
2019-02-26T05:10:13.538Z,47.73
2019-02-26T05:12:43.065Z,43.80
2019-02-26T05:15:16.994Z,44.73
2019-02-26T05:17:43.976Z,46.90
2019-02-26T05:20:16.527Z,42.10
2019-02-26T05:22:45.100Z,43.70
2019-02-26T05:25:17.052Z,46.15
2019-02-26T05:27:48.192Z,45.58
2019-02-26T05:30:19.657Z,44.98
2019-02-26T05:32:48.317Z,42.73
2019-02-26T05:35:20.345Z,43.02
2019-02-26T05:37:49.082Z,44.70
2019-02-26T05:40:21.883Z,45.00
2019-02-26T05:42:49.901Z,45.48
2019-02-26T05:45:21.512Z,43.68
2019-02-26T05:47:51.380Z,44.58
2019-02-26T05:50:21.890Z,46.13
2019-02-26T05:52:57.522Z,44.00
2019-02-26T05:55:23.722Z,45.48
2019-02-26T05:57:54.004Z,44.20
2019-02-26T06:00:28.449Z,47.55
2019-02-26T06:02:55.206Z,45.45
2019-02-26T06:05:26.166Z,43.65
2019-02-26T06:07:56.295Z,46.58
2019-02-26T06:10:27.205Z,48.20
2019-02-26T06:12:57.515Z,46.80
2019-02-26T06:15:28.852Z,48.55
2019-02-26T06:17:58.379Z,47.35
2019-02-26T06:20:29.206Z,47.35
2019-02-26T06:22:59.260Z,49.45
2019-02-26T06:25:28.847Z,49.88
2019-02-26T06:28:02.279Z,45.43
2019-02-26T06:30:29.843Z,47.98
2019-02-26T06:33:02.031Z,48.87
2019-02-26T06:35:31.545Z,50.12
2019-02-26T06:38:04.586Z,47.75
2019-02-26T06:40:36.957Z,52.40
2019-02-26T06:43:05.894Z,52.13
2019-02-26T06:45:37.537Z,55.95
2019-02-26T06:48:06.710Z,52.10
2019-02-26T06:50:36.821Z,54.30
2019-02-26T06:53:09.153Z,51.95
2019-02-26T06:55:38.778Z,57.90
2019-02-26T06:58:20.351Z,54.58
2019-02-26T07:00:55.136Z,54.00
2019-02-26T07:03:24.793Z,53.33
2019-02-26T07:05:54.282Z,61.18
2019-02-26T07:08:25.994Z,61.68
2019-02-26T07:10:57.955Z,54.50
2019-02-26T07:13:27.552Z,56.65
2019-02-26T07:15:57.140Z,53.28
2019-02-26T07:18:27.062Z,57.95
2019-02-26T07:21:00.307Z,55.45
2019-02-26T07:23:32.594Z,56.53
2019-02-26T07:26:01.871Z,57.17
2019-02-26T07:28:31.399Z,55.23
2019-02-26T07:31:02.732Z,54.55
2019-02-26T07:33:34.317Z,58.80
2019-02-26T07:36:04.220Z,56.90
2019-02-26T07:38:40.907Z,54.25
2019-02-26T07:41:06.165Z,56.02
2019-02-26T07:43:38.786Z,55.58
2019-02-26T07:46:09.531Z,59.23
2019-02-26T07:48:38.638Z,59.90
2019-02-26T07:51:08.827Z,60.35
2019-02-26T07:53:42.042Z,62.50
2019-02-26T07:56:09.818Z,56.18
2019-02-26T07:58:43.147Z,57.10
2019-02-26T08:01:13.302Z,56.37
2019-02-26T08:03:43.947Z,56.63
2019-02-26T08:06:14.283Z,62.98
2019-02-26T08:08:44.881Z,64.55
2019-02-26T08:11:15.257Z,58.50
2019-02-26T08:13:45.246Z,57.98
2019-02-26T08:16:15.210Z,55.70
2019-02-26T08:18:45.175Z,49.95
2019-02-26T08:21:15.189Z,53.63
2019-02-26T08:23:46.096Z,46.75
2019-02-26T08:26:18.056Z,40.05
2019-02-26T08:28:48.245Z,41.15
2019-02-26T08:31:20.514Z,43.52
2019-02-26T08:33:51.689Z,43.85
2019-02-26T08:36:20.459Z,38.73
2019-02-26T08:38:51.959Z,34.65
2019-02-26T08:41:21.890Z,39.85
2019-02-26T08:43:52.132Z,34.27
2019-02-26T08:46:22.727Z,37.30
2019-02-26T08:48:52.282Z,42.98
2019-02-26T08:51:21.820Z,39.42
2019-02-26T08:53:51.840Z,41.58
2019-02-26T08:56:23.929Z,45.88
2019-02-26T08:58:54.747Z,36.08
2019-02-26T09:01:25.597Z,44.03
2019-02-26T09:03:55.935Z,40.03
2019-02-26T09:06:26.367Z,42.85
2019-02-26T09:08:57.941Z,42.05
2019-02-26T09:11:28.700Z,47.27
2019-02-26T09:14:03.898Z,48.90
2019-02-26T09:16:52.150Z,47.20
2019-02-26T09:19:22.675Z,50.95
2019-02-26T09:22:13.966Z,48.28
2019-02-26T09:24:42.071Z,51.35
2019-02-26T09:27:11.679Z,53.15
2019-02-26T09:29:47.370Z,48.75
2019-02-26T09:32:14.419Z,50.28
2019-02-26T09:34:45.103Z,53.83
2019-02-26T09:37:15.351Z,45.03
2019-02-26T09:39:45.222Z,46.13
2019-02-26T09:42:15.218Z,56.55
2019-02-26T09:44:45.137Z,52.30
2019-02-26T09:47:15.074Z,52.70
2019-02-26T09:49:47.293Z,57.35
2019-02-26T09:52:18.402Z,49.58
2019-02-26T09:54:48.246Z,65.17
2019-02-26T09:57:21.163Z,58.05
2019-02-26T09:59:52.174Z,62.75
2019-02-26T10:02:22.317Z,58.83
2019-02-26T10:04:54.417Z,51.58
2019-02-26T10:07:26.081Z,51.33
2019-02-26T10:09:55.300Z,47.38
2019-02-26T10:12:27.432Z,46.23
2019-02-26T10:14:59.592Z,45.67
2019-02-26T10:17:28.451Z,50.88
2019-02-26T10:19:59.375Z,54.88
2019-02-26T10:22:33.183Z,54.35
2019-02-26T10:25:00.704Z,56.10
2019-02-26T10:27:33.641Z,56.00
2019-02-26T10:30:05.057Z,49.93
2019-02-26T10:32:33.910Z,53.13
2019-02-26T10:35:09.675Z,57.45
2019-02-26T10:37:43.943Z,57.45
2019-02-26T10:40:16.966Z,57.00
2019-02-26T10:42:46.255Z,53.60
2019-02-26T10:45:18.854Z,50.15
2019-02-26T10:47:49.354Z,55.98
2019-02-26T10:50:25.208Z,66.82
2019-02-26T10:53:01.471Z,67.60
2019-02-26T10:55:35.242Z,76.28
2019-02-26T10:58:04.120Z,59.48
2019-02-26T11:00:35.308Z,71.05
2019-02-26T11:03:06.436Z,64.95
2019-02-26T11:05:37.202Z,58.65
2019-02-26T11:08:09.325Z,51.90
2019-02-26T11:10:41.417Z,54.20
2019-02-26T11:13:12.442Z,61.05
2019-02-26T11:15:41.935Z,55.10
2019-02-26T11:18:12.290Z,61.98
2019-02-26T11:20:45.238Z,70.42
2019-02-26T11:23:16.099Z,68.02
2019-02-26T11:25:45.372Z,67.58
2019-02-26T11:28:15.195Z,65.20
2019-02-26T11:30:46.629Z,62.88
2019-02-26T11:33:16.234Z,61.90
2019-02-26T11:35:47.105Z,60.10
2019-02-26T11:38:19.520Z,62.45
2019-02-26T11:40:48.431Z,55.92
2019-02-26T11:43:22.553Z,59.90
2019-02-26T11:45:49.292Z,54.63
2019-02-26T11:48:21.289Z,53.98
2019-02-26T11:50:50.481Z,53.87
2019-02-26T11:53:20.055Z,49.33
2019-02-26T11:55:52.541Z,44.23
2019-02-26T11:58:22.346Z,42.70
2019-02-26T12:00:54.460Z,40.83
2019-02-26T12:03:25.433Z,44.45
2019-02-26T12:05:56.691Z,47.15
2019-02-26T12:08:26.926Z,38.70
2019-02-26T12:11:01.113Z,32.48
2019-02-26T12:13:27.858Z,32.30
2019-02-26T12:15:57.509Z,37.48
2019-02-26T12:18:27.767Z,34.23
2019-02-26T12:20:57.462Z,32.45
2019-02-26T12:23:27.019Z,43.28
2019-02-26T12:25:59.235Z,35.03
2019-02-26T12:28:28.323Z,40.83
2019-02-26T12:31:01.255Z,39.75
2019-02-26T12:33:32.448Z,38.33
2019-02-26T12:36:04.408Z,41.20
2019-02-26T12:38:36.529Z,39.15
2019-02-26T12:41:06.802Z,33.02
2019-02-26T12:46:08.479Z,35.30
2019-02-26T12:48:41.753Z,37.08
2019-02-26T12:51:09.999Z,41.05
2019-02-26T12:53:44.075Z,40.28
2019-02-26T12:56:13.484Z,45.28
2019-02-26T12:58:45.193Z,41.40
2019-02-26T13:01:15.431Z,41.95
2019-02-26T13:03:49.692Z,48.83
2019-02-26T13:06:18.676Z,36.28
2019-02-26T13:08:49.778Z,35.08
2019-02-26T13:11:21.025Z,33.50
2019-02-26T13:13:52.601Z,31.40
2019-02-26T13:16:21.456Z,32.30
2019-02-26T13:18:55.384Z,28.17
2019-02-26T13:21:22.296Z,35.80
2019-02-26T13:24:11.809Z,25.27
2019-02-26T13:26:35.970Z,22.62
2019-02-26T13:29:04.369Z,25.00
2019-02-26T13:31:37.198Z,31.10
2019-02-26T13:34:05.379Z,21.52
2019-02-26T13:36:36.377Z,21.27
2019-02-26T13:39:07.402Z,22.80
2019-02-26T13:41:42.530Z,20.68
2019-02-26T13:44:12.333Z,22.40
2019-02-26T13:46:41.999Z,27.20
2019-02-26T13:49:11.745Z,23.18
2019-02-26T13:51:41.375Z,25.50
2019-02-26T13:54:11.035Z,19.62
2019-02-26T13:56:41.152Z,19.70
2019-02-26T13:59:10.879Z,22.35
2019-02-26T14:01:40.543Z,20.05
2019-02-26T14:04:10.168Z,23.12
2019-02-26T14:06:39.964Z,18.62
2019-02-26T14:09:10.320Z,25.05
2019-02-26T14:11:40.185Z,20.95
2019-02-26T14:14:09.884Z,19.20
2019-02-26T14:16:39.525Z,18.48
2019-02-26T14:19:09.150Z,18.57
2019-02-26T14:21:38.764Z,17.62
2019-02-26T14:24:08.716Z,15.18
2019-02-26T14:26:38.406Z,18.48
2019-02-26T14:29:08.339Z,18.20
2019-02-26T14:31:37.970Z,22.30
2019-02-26T14:34:08.042Z,15.65
2019-02-26T14:36:37.966Z,19.32
2019-02-26T14:39:10.816Z,17.15
2019-02-26T14:41:40.432Z,22.58
2019-02-26T14:44:09.993Z,18.52
2019-02-26T14:46:40.579Z,16.07
2019-02-26T14:49:11.224Z,18.02
2019-02-26T14:51:40.860Z,18.05
2019-02-26T14:54:10.538Z,17.02
2019-02-26T14:56:41.177Z,19.98
2019-02-26T14:59:10.804Z,23.35
2019-02-26T15:01:40.740Z,16.77
2019-02-26T15:04:10.921Z,13.48
2019-02-26T15:06:40.563Z,14.30
2019-02-26T15:09:10.275Z,13.32
2019-02-26T15:11:39.823Z,16.50
2019-02-26T15:14:09.515Z,15.98
2019-02-26T15:16:39.776Z,17.82
2019-02-26T15:19:09.406Z,23.07
2019-02-26T15:21:39.094Z,21.55
2019-02-26T15:24:08.836Z,24.65
2019-02-26T15:26:38.544Z,21.00
2019-02-26T15:29:08.244Z,57.35
2019-02-26T15:31:39.574Z,50.40
2019-02-26T15:34:09.377Z,29.35
2019-02-26T15:36:39.056Z,22.93
2019-02-26T15:39:08.630Z,21.15
2019-02-26T15:41:38.241Z,22.42
2019-02-26T15:44:07.997Z,20.08
2019-02-26T15:46:37.636Z,25.10
2019-02-26T15:49:07.683Z,27.13
2019-02-26T15:51:37.831Z,25.82
2019-02-26T15:54:07.540Z,29.12
2019-02-26T15:56:37.159Z,35.60
2019-02-26T15:59:07.109Z,36.03
2019-02-26T16:01:37.014Z,26.65
2019-02-26T16:04:07.070Z,24.55
2019-02-26T16:06:37.012Z,29.02
2019-02-26T16:09:07.426Z,31.00
2019-02-26T16:11:37.040Z,23.70
2019-02-26T16:14:06.864Z,29.87
2019-02-26T16:16:36.759Z,29.57
2019-02-26T16:19:06.691Z,27.45
2019-02-26T16:21:54.697Z,26.57
2019-02-26T16:24:24.308Z,23.40
2019-02-26T16:26:54.345Z,24.57
2019-02-26T16:29:23.903Z,24.65
2019-02-26T16:31:53.515Z,25.48
2019-02-26T16:34:23.048Z,23.47
2019-02-26T16:36:53.369Z,23.18
2019-02-26T16:39:24.738Z,22.82
2019-02-26T16:41:54.218Z,22.75
2019-02-26T16:44:24.801Z,29.63
2019-02-26T16:46:55.377Z,38.13
2019-02-26T16:49:25.847Z,27.77
2019-02-26T16:51:56.320Z,32.85
2019-02-26T16:54:26.266Z,27.32
2019-02-26T16:56:56.790Z,24.40
2019-02-26T16:59:26.544Z,38.53
2019-02-26T17:01:56.070Z,30.82
2019-02-26T17:04:26.205Z,25.23
2019-02-26T17:06:56.245Z,40.65
2019-02-26T17:09:26.051Z,45.95
2019-02-26T17:11:55.979Z,44.77
2019-02-26T17:14:25.650Z,51.77
2019-02-26T17:16:55.613Z,49.08
2019-02-26T17:19:25.241Z,42.15
2019-02-26T17:21:55.024Z,48.23
2019-02-26T17:24:24.653Z,42.05
2019-02-26T17:26:54.195Z,42.30
2019-02-26T17:29:23.865Z,50.00
2019-02-26T17:31:53.539Z,47.62
2019-02-26T17:34:23.609Z,54.10
2019-02-26T17:36:53.294Z,50.70
2019-02-26T17:39:23.699Z,49.10
2019-02-26T17:41:54.407Z,50.28
2019-02-26T17:44:24.060Z,49.27
2019-02-26T17:46:53.618Z,51.48
2019-02-26T17:49:23.746Z,44.48
2019-02-26T17:51:53.390Z,49.23
2019-02-26T17:54:23.145Z,45.45
2019-02-26T17:56:52.769Z,51.73
2019-02-26T17:59:22.931Z,49.67
2019-02-26T18:01:52.537Z,58.65
2019-02-26T18:04:22.990Z,60.92
2019-02-26T18:06:53.197Z,67.75
2019-02-26T18:09:34.380Z,79.53
2019-02-26T18:12:04.143Z,62.10
2019-02-26T18:14:33.671Z,61.50
2019-02-26T18:17:03.353Z,61.70
2019-02-26T18:19:32.999Z,48.15
2019-02-26T18:22:02.609Z,42.08
2019-02-26T18:24:32.518Z,43.52
2019-02-26T18:27:02.851Z,54.18
2019-02-26T18:29:32.455Z,44.63
2019-02-26T18:32:02.190Z,41.23
2019-02-26T18:34:31.833Z,44.33
2019-02-26T18:37:01.435Z,53.15
2019-02-26T18:39:32.439Z,49.05
2019-02-26T18:42:02.723Z,49.77
2019-02-26T18:44:32.339Z,51.30
2019-02-26T18:47:01.982Z,51.00
2019-02-26T18:49:31.630Z,58.17
2019-02-26T18:52:08.385Z,52.55
2019-02-26T18:54:36.603Z,52.78
2019-02-26T18:57:06.173Z,49.00
2019-02-26T18:59:35.782Z,53.20
2019-02-26T19:02:05.734Z,51.35
2019-02-26T19:04:35.406Z,57.20
2019-02-26T19:07:08.775Z,58.08
2019-02-26T19:09:38.421Z,61.40
2019-02-26T19:12:08.113Z,57.00
2019-02-26T19:14:41.875Z,59.10
2019-02-26T19:17:08.955Z,56.60
2019-02-26T19:19:39.752Z,54.93
2019-02-26T19:22:09.732Z,59.13
2019-02-26T19:24:39.341Z,55.73
2019-02-26T19:27:09.731Z,63.65
2019-02-26T19:29:39.351Z,53.28
2019-02-26T19:32:10.167Z,52.43
2019-02-26T19:34:39.713Z,56.08
2019-02-26T19:37:09.440Z,57.62
2019-02-26T19:39:39.026Z,57.20
2019-02-26T19:42:08.567Z,58.98
2019-02-26T19:44:38.170Z,59.20
2019-02-26T19:47:07.795Z,57.93
2019-02-26T19:49:39.681Z,53.10
2019-02-26T19:52:08.789Z,55.10
2019-02-26T19:54:41.676Z,58.83
2019-02-26T19:57:09.813Z,54.35
2019-02-26T19:59:39.427Z,52.23
2019-02-26T20:02:09.021Z,59.83
2019-02-26T20:04:39.081Z,48.85
2019-02-26T20:07:08.779Z,50.67
2019-02-26T20:09:38.853Z,51.08
2019-02-26T20:12:10.069Z,55.65
2019-02-26T20:14:39.700Z,53.75
2019-02-26T20:17:14.793Z,55.17
2019-02-26T20:19:40.676Z,55.15
2019-02-26T20:22:10.804Z,48.40
2019-02-26T20:24:40.379Z,59.03
2019-02-26T20:27:10.050Z,55.40
2019-02-26T20:29:40.174Z,63.70
2019-02-26T20:32:09.803Z,65.95
2019-02-26T20:34:39.331Z,71.28
2019-02-26T20:37:09.924Z,72.53
2019-02-26T20:39:40.816Z,68.85
2019-02-26T20:42:10.786Z,77.65
2019-02-26T20:44:45.216Z,83.70
2019-02-26T20:47:12.541Z,89.17
2019-02-26T20:49:43.686Z,92.95
2019-02-26T20:52:13.283Z,89.72
2019-02-26T20:54:44.606Z,80.15
2019-02-26T20:57:14.060Z,82.82
2019-02-26T20:59:43.823Z,80.47
2019-02-26T21:02:13.450Z,83.58
2019-02-26T21:04:43.895Z,83.67
2019-02-26T21:07:13.685Z,86.40
2019-02-26T21:09:43.962Z,85.47
2019-02-26T21:12:13.506Z,77.67
2019-02-26T21:14:43.042Z,78.10
2019-02-26T21:17:13.247Z,94.10
2019-02-26T21:19:42.945Z,82.08
2019-02-26T21:22:12.561Z,88.87
2019-02-26T21:24:42.118Z,84.55
2019-02-26T21:27:11.763Z,81.08
2019-02-26T21:29:41.642Z,74.12
2019-02-26T21:32:12.587Z,72.53
2019-02-26T21:34:42.934Z,81.55
2019-02-26T21:37:13.184Z,75.55
2019-02-26T21:39:44.201Z,75.12
2019-02-26T21:42:14.077Z,64.25
2019-02-26T21:44:44.398Z,63.33
2019-02-26T21:47:14.098Z,67.62
2019-02-26T21:49:43.811Z,65.57
2019-02-26T21:52:13.344Z,65.45
2019-02-26T21:54:43.168Z,76.77
2019-02-26T21:57:12.702Z,71.15
2019-02-26T21:59:49.781Z,74.95
2019-02-26T22:02:13.502Z,65.75
2019-02-26T22:04:43.919Z,78.60
2019-02-26T22:07:13.512Z,72.67
2019-02-26T22:09:43.067Z,65.17
2019-02-26T22:12:12.599Z,69.32
2019-02-26T22:14:43.152Z,85.90
2019-02-26T22:17:14.037Z,73.05
2019-02-26T22:19:43.690Z,69.40
2019-02-26T22:22:14.048Z,72.95
2019-02-26T22:24:43.655Z,71.90
2019-02-26T22:27:13.182Z,69.20
2019-02-26T22:29:42.711Z,81.72
2019-02-26T22:32:13.278Z,83.85
2019-02-26T22:34:42.807Z,76.17
2019-02-26T22:37:12.335Z,77.37
2019-02-26T22:39:41.898Z,78.83
2019-02-26T22:42:11.534Z,73.35
2019-02-26T22:44:41.572Z,81.55
2019-02-26T22:47:11.463Z,89.55
2019-02-26T22:49:41.591Z,81.50
2019-02-26T22:52:11.503Z,82.08
2019-02-26T22:54:43.477Z,84.72
2019-02-26T22:57:12.771Z,87.05
2019-02-26T22:59:42.299Z,78.92
2019-02-26T23:02:13.325Z,81.82
2019-02-26T23:04:42.918Z,82.47
2019-02-26T23:07:12.753Z,70.75
2019-02-26T23:09:43.151Z,75.57
2019-02-26T23:12:13.414Z,77.87
2019-02-26T23:14:43.010Z,78.60
2019-02-26T23:17:13.298Z,77.90
2019-02-26T23:19:42.822Z,75.70
2019-02-26T23:22:12.639Z,75.22
2019-02-26T23:24:42.835Z,76.77
2019-02-26T23:27:14.952Z,82.12
2019-02-26T23:29:44.919Z,81.00
2019-02-26T23:32:14.810Z,74.22
2019-02-26T23:34:47.434Z,75.35
2019-02-26T23:37:17.718Z,81.65
2019-02-26T23:39:47.436Z,76.90
2019-02-26T23:42:17.039Z,75.95
2019-02-26T23:44:50.878Z,83.80
2019-02-26T23:47:17.880Z,82.35
2019-02-26T23:49:48.262Z,77.37
2019-02-26T23:52:18.241Z,80.05
2019-02-26T23:54:47.775Z,72.42
2019-02-26T23:57:18.502Z,72.82
2019-02-26T23:59:48.151Z,77.60
